Time;durP1;ratioP1;P1;durP2;ratioP2;P2;SDS_P1;SDS_P2;PMS_P1;PMS_P2;Temp;Humidity;BMP_temperature;BMP_pressure;BME280_temperature;BME280_humidity;BME280_pressure;Samples;Min_cycle;Max_cycle;Signal;HPM_P1;HPM_P2
2023/03/17 00:00:48;;;;;;;9.70;5.83;;;;;;;2.69;100.00;95332.16;4926269;28;20260;-68
2023/03/17 00:03:22;;;;;;;9.67;5.93;;;;;;;2.63;100.00;95337.88;4916911;28;20232;-67
2023/03/17 00:05:47;;;;;;;9.17;5.70;;;;;;;2.74;100.00;95327.38;4946235;28;20243;-68
2023/03/17 00:08:24;;;;;;;10.60;5.80;;;;;;;2.69;100.00;95334.75;4942685;28;21128;-68
2023/03/17 00:10:50;;;;;;;9.30;5.67;;;;;;;2.64;100.00;95340.34;4949369;28;21171;-68
2023/03/17 00:13:16;;;;;;;10.07;6.03;;;;;;;2.69;100.00;95330.41;4936718;28;20252;-69
2023/03/17 00:15:42;;;;;;;9.57;5.50;;;;;;;2.74;100.00;95340.31;4927404;28;20225;-68
2023/03/17 00:18:12;;;;;;;8.73;5.73;;;;;;;2.69;100.00;95339.91;4930332;28;20815;-67
2023/03/17 00:20:38;;;;;;;8.23;5.50;;;;;;;2.72;100.00;95337.84;4940042;28;20234;-67
2023/03/17 00:23:04;;;;;;;9.37;5.90;;;;;;;2.61;100.00;95337.22;4960232;28;20291;-66
2023/03/17 00:25:32;;;;;;;10.37;6.10;;;;;;;2.65;100.00;95338.56;4915714;28;20237;-67
2023/03/17 00:27:57;;;;;;;10.43;6.20;;;;;;;2.74;100.00;95340.31;4962744;28;20229;-68
2023/03/17 00:30:23;;;;;;;10.07;6.07;;;;;;;2.83;100.00;95331.69;4937430;28;20711;-67
2023/03/17 00:32:50;;;;;;;9.53;5.80;;;;;;;2.69;100.00;95334.75;4934716;28;20238;-67
2023/03/17 00:35:26;;;;;;;11.00;6.20;;;;;;;2.78;100.00;95340.81;4936528;28;20301;-68
2023/03/17 00:37:52;;;;;;;10.80;6.27;;;;;;;2.72;100.00;95339.63;4965238;28;20235;-68
2023/03/17 00:40:22;;;;;;;10.43;6.50;;;;;;;2.65;100.00;95339.38;4947246;28;20249;-67
2023/03/17 00:42:51;;;;;;;12.43;6.50;;;;;;;2.62;100.00;95331.09;4966303;28;20282;-67
2023/03/17 00:45:18;;;;;;;9.47;6.20;;;;;;;2.75;100.00;95336.75;4957117;28;20229;-67
2023/03/17 00:47:44;;;;;;;10.60;6.17;;;;;;;2.73;100.00;95330.91;4945830;28;20233;-67
2023/03/17 00:50:17;;;;;;;10.43;6.03;;;;;;;2.71;100.00;95331.06;4952438;28;20304;-68
2023/03/17 00:52:44;;;;;;;9.67;6.33;;;;;;;2.78;100.00;95333.06;4909735;28;20262;-68
2023/03/17 00:55:10;;;;;;;9.40;6.20;;;;;;;2.72;100.00;95337.84;4950202;28;20249;-67
2023/03/17 00:57:36;;;;;;;8.37;5.80;;;;;;;2.65;100.00;95341.94;4976431;28;20597;-68
2023/03/17 01:00:03;;;;;;;8.83;5.80;;;;;;;2.78;100.00;95349.41;4943317;28;20299;-68
2023/03/17 01:02:28;;;;;;;9.10;6.30;;;;;;;2.69;100.00;95345.91;4948841;28;20236;-68
2023/03/17 01:04:54;;;;;;;7.77;5.73;;;;;;;2.68;100.00;95343.44;4937639;28;20269;-68
2023/03/17 01:07:19;;;;;;;7.90;5.43;;;;;;;2.80;100.00;95344.06;4929510;28;20610;-67
2023/03/17 01:09:45;;;;;;;9.33;5.80;;;;;;;2.76;100.00;95347.91;4961315;28;20280;-67
2023/03/17 01:12:11;;;;;;;9.10;5.60;;;;;;;2.76;100.00;95347.91;4917635;28;20238;-68
2023/03/17 01:14:37;;;;;;;8.13;5.33;;;;;;;2.79;100.00;95342.47;4928443;28;20239;-68
2023/03/17 01:17:02;;;;;;;8.63;5.90;;;;;;;2.82;100.00;95344.78;4966406;28;20228;-69
2023/03/17 01:19:27;;;;;;;9.30;6.10;;;;;;;2.87;100.00;95348.53;4939139;28;20237;-68
2023/03/17 01:21:53;;;;;;;8.90;5.80;;;;;;;2.83;100.00;95346.38;4914127;28;20248;-69
2023/03/17 01:24:18;;;;;;;8.60;5.87;;;;;;;2.89;100.00;95351.00;4922082;28;20260;-69
2023/03/17 01:26:44;;;;;;;9.70;5.93;;;;;;;2.83;100.00;95346.38;4963849;28;20236;-68
2023/03/17 01:29:10;;;;;;;8.90;6.20;;;;;;;2.86;100.00;95346.94;4963045;28;20264;-68
2023/03/17 01:31:36;;;;;;;9.53;6.23;;;;;;;2.80;100.00;95355.22;4930245;28;21028;-68
2023/03/17 01:34:03;;;;;;;10.30;5.87;;;;;;;2.81;100.00;95356.88;4957992;28;20321;-68
2023/03/17 01:36:28;;;;;;;9.60;6.40;;;;;;;2.89;100.00;95351.78;4949923;28;20240;-68
2023/03/17 01:38:54;;;;;;;12.03;6.40;;;;;;;2.97;100.00;95351.91;4962701;28;20327;-68
2023/03/17 01:41:19;;;;;;;10.60;5.97;;;;;;;2.95;100.00;95345.25;4929793;28;20243;-69
2023/03/17 01:43:45;;;;;;;9.27;5.90;;;;;;;2.93;100.00;95353.16;4921047;28;20241;-69
2023/03/17 01:46:20;;;;;;;10.90;6.30;;;;;;;2.92;100.00;95348.94;4949943;28;20225;-69
2023/03/17 01:49:06;;;;;;;9.50;5.83;;;;;;;2.94;100.00;95343.63;4937045;28;20278;-69
2023/03/17 01:51:33;;;;;;;9.23;5.90;;;;;;;2.99;100.00;95351.75;4940476;28;20223;-67
2023/03/17 01:54:00;;;;;;;9.77;6.03;;;;;;;3.00;100.00;95358.56;4932471;28;20325;-68
2023/03/17 01:56:25;;;;;;;8.40;5.80;;;;;;;2.92;100.00;95353.28;4942678;28;20222;-68
2023/03/17 01:58:51;;;;;;;9.63;5.80;;;;;;;2.85;100.00;95355.63;4952602;28;20256;-68
2023/03/17 02:01:19;;;;;;;8.53;5.80;;;;;;;2.90;100.00;95358.59;4936301;28;20268;-68
2023/03/17 02:03:45;;;;;;;9.10;5.60;;;;;;;2.96;100.00;95365.78;4933463;28;20250;-68
2023/03/17 02:06:11;;;;;;;7.90;5.77;;;;;;;2.96;100.00;95357.22;4958487;28;20229;-67
2023/03/17 02:08:37;;;;;;;8.07;5.50;;;;;;;2.59;100.00;95363.19;4921395;28;20283;-68
2023/03/17 02:11:03;;;;;;;10.07;5.90;;;;;;;2.63;100.00;95361.94;4952017;28;20302;-68
2023/03/17 02:13:29;;;;;;;10.63;5.90;;;;;;;2.80;100.00;95369.91;4941121;28;20340;-68
2023/03/17 02:15:55;;;;;;;9.10;5.83;;;;;;;2.93;100.00;95366.06;4939582;28;20304;-68
2023/03/17 02:18:22;;;;;;;8.97;5.90;;;;;;;2.97;100.00;95367.41;4944746;28;20340;-69
2023/03/17 02:20:47;;;;;;;8.73;5.67;;;;;;;3.01;100.00;95370.53;4947949;28;20281;-67
2023/03/17 02:23:18;;;;;;;7.77;5.07;;;;;;;2.92;100.00;95366.19;4946333;28;20237;-69
2023/03/17 02:25:44;;;;;;;8.47;5.30;;;;;;;2.77;100.00;95362.47;4927065;28;20236;-68
2023/03/17 02:28:15;;;;;;;8.60;5.60;;;;;;;2.79;100.00;95363.97;4969040;28;20228;-68
2023/03/17 02:30:40;;;;;;;10.57;5.83;;;;;;;2.92;100.00;95369.59;4940470;28;20232;-69
2023/03/17 02:33:06;;;;;;;9.20;5.73;;;;;;;2.86;100.00;95380.53;4932614;28;20256;-69
2023/03/17 02:35:31;;;;;;;9.10;5.83;;;;;;;2.89;100.00;95380.22;4926797;28;20349;-68
2023/03/17 02:37:57;;;;;;;7.47;5.60;;;;;;;3.00;100.00;95377.47;4978148;28;20260;-68
2023/03/17 02:40:23;;;;;;;10.53;6.13;;;;;;;3.07;100.00;95382.88;4932116;28;20287;-68
2023/03/17 02:42:48;;;;;;;9.60;5.87;;;;;;;2.80;100.00;95382.84;4949216;28;20618;-69
2023/03/17 02:45:14;;;;;;;9.03;5.47;;;;;;;2.64;100.00;95389.44;4939922;28;20232;-69
2023/03/17 02:47:40;;;;;;;9.03;6.03;;;;;;;2.87;100.00;95392.47;4947274;28;20268;-69
2023/03/17 02:50:06;;;;;;;8.27;5.40;;;;;;;2.90;100.00;95388.78;4959808;28;20679;-69
2023/03/17 02:52:31;;;;;;;9.40;5.80;;;;;;;2.80;100.00;95394.00;4928526;28;20283;-69
2023/03/17 02:54:57;;;;;;;8.07;5.20;;;;;;;2.88;100.00;95399.28;4939175;28;20771;-68
2023/03/17 02:57:22;;;;;;;8.97;5.23;;;;;;;2.98;100.00;95391.50;4974982;28;20272;-69
2023/03/17 02:59:48;;;;;;;8.20;5.30;;;;;;;2.93;100.00;95397.09;4966758;28;20224;-69
2023/03/17 03:02:14;;;;;;;6.80;4.70;;;;;;;2.97;100.00;95406.19;4948761;28;20588;-69
2023/03/17 03:04:40;;;;;;;8.33;5.13;;;;;;;2.98;100.00;95396.66;4945455;28;20802;-68
2023/03/17 03:07:06;;;;;;;8.73;5.47;;;;;;;2.94;100.00;95395.34;4931406;28;20624;-69
2023/03/17 03:09:31;;;;;;;7.00;5.07;;;;;;;2.86;100.00;95400.38;4930515;28;20727;-68
2023/03/17 03:11:57;;;;;;;7.37;5.00;;;;;;;2.88;100.00;95403.63;4934261;28;20245;-69
2023/03/17 03:14:22;;;;;;;9.10;5.37;;;;;;;2.88;100.00;95403.63;4916898;28;20784;-68
2023/03/17 03:16:48;;;;;;;8.20;4.90;;;;;;;2.88;100.00;95403.63;4935734;28;20817;-68
2023/03/17 03:19:14;;;;;;;8.27;5.33;;;;;;;2.83;100.00;95408.41;4964547;28;20245;-68
2023/03/17 03:21:39;;;;;;;8.77;5.67;;;;;;;2.82;100.00;95415.34;4958654;28;20228;-68
2023/03/17 03:24:05;;;;;;;8.30;5.70;;;;;;;2.80;100.00;95413.84;4934697;28;20245;-68
2023/03/17 03:26:30;;;;;;;8.37;5.30;;;;;;;2.87;100.00;95417.50;4949365;28;20232;-67
2023/03/17 03:28:57;;;;;;;8.73;5.47;;;;;;;2.85;100.00;95429.75;4918815;28;20346;-68
2023/03/17 03:31:23;;;;;;;9.53;4.93;;;;;;;2.85;100.00;95417.66;4950614;28;21206;-68
2023/03/17 03:33:48;;;;;;;9.13;5.53;;;;;;;2.80;100.00;95425.00;4952216;28;20830;-68
2023/03/17 03:36:13;;;;;;;9.00;5.50;;;;;;;2.89;100.00;95425.97;4918384;29;20735;-68
2023/03/17 03:38:40;;;;;;;7.83;5.07;;;;;;;2.83;100.00;95429.91;4951694;28;20240;-69
2023/03/17 03:41:06;;;;;;;8.33;5.40;;;;;;;2.89;100.00;95431.13;4904901;28;20291;-68
2023/03/17 03:43:32;;;;;;;8.37;5.20;;;;;;;2.81;100.00;95429.25;4918280;28;21082;-67
2023/03/17 03:45:57;;;;;;;8.50;5.17;;;;;;;2.82;100.00;95430.06;4935109;28;20702;-68
2023/03/17 03:48:23;;;;;;;8.13;5.30;;;;;;;2.91;100.00;95431.78;4919175;28;20229;-68
2023/03/17 03:50:48;;;;;;;8.27;5.40;;;;;;;2.85;100.00;95428.00;4936629;28;20230;-68
2023/03/17 03:53:14;;;;;;;8.80;5.60;;;;;;;2.90;100.00;95433.56;4950016;28;20239;-68
2023/03/17 03:55:39;;;;;;;8.97;5.40;;;;;;;2.98;100.00;95427.69;4935557;28;20260;-68
2023/03/17 03:58:05;;;;;;;7.53;5.30;;;;;;;2.96;100.00;95430.41;4919604;28;20779;-68
2023/03/17 04:00:31;;;;;;;9.40;5.43;;;;;;;3.02;100.00;95429.03;4919833;28;20240;-68
2023/03/17 04:02:56;;;;;;;8.20;5.13;;;;;;;2.95;100.00;95433.97;4936872;28;20243;-68
2023/03/17 04:05:21;;;;;;;8.67;5.40;;;;;;;2.95;100.00;95438.31;4920030;28;20737;-69
2023/03/17 04:07:47;;;;;;;9.03;5.77;;;;;;;2.98;100.00;95432.88;4937372;28;20225;-69
2023/03/17 04:10:14;;;;;;;8.47;5.70;;;;;;;3.00;100.00;95446.47;4935919;28;20280;-68
2023/03/17 04:12:40;;;;;;;8.57;5.67;;;;;;;2.79;100.00;95451.81;4949332;28;20237;-68
2023/03/17 04:15:08;;;;;;;8.83;5.47;;;;;;;2.87;100.00;95453.69;4968113;28;20571;-69
2023/03/17 04:17:34;;;;;;;9.20;5.60;;;;;;;2.99;100.00;95455.16;4934886;28;20237;-69
2023/03/17 04:19:59;;;;;;;7.63;5.30;;;;;;;2.99;100.00;95461.16;4922092;28;20252;-68
2023/03/17 04:22:25;;;;;;;9.87;5.30;;;;;;;3.04;100.00;95458.97;4903791;28;20240;-69
2023/03/17 04:24:51;;;;;;;7.37;5.13;;;;;;;3.00;100.00;95461.97;4921394;28;20244;-69
2023/03/17 04:27:16;;;;;;;8.60;5.70;;;;;;;2.98;100.00;95463.88;4938310;28;20699;-68
2023/03/17 04:29:42;;;;;;;8.50;5.47;;;;;;;2.99;100.00;95465.50;4930802;28;20236;-69
2023/03/17 04:32:10;;;;;;;9.37;5.83;;;;;;;3.02;100.00;95465.22;4947755;28;20323;-69
2023/03/17 04:34:35;;;;;;;8.70;5.57;;;;;;;3.01;100.00;95469.56;4964233;28;20292;-69
2023/03/17 04:37:01;;;;;;;8.83;5.23;;;;;;;3.00;100.00;95473.13;4966689;28;20236;-69
2023/03/17 04:39:26;;;;;;;8.50;5.20;;;;;;;3.06;100.00;95469.97;4945709;28;20837;-69
2023/03/17 04:41:52;;;;;;;10.10;5.50;;;;;;;3.09;100.00;95476.63;4932586;28;20264;-67
2023/03/17 04:44:17;;;;;;;8.57;5.20;;;;;;;3.01;100.00;95472.16;4931963;28;20881;-72
2023/03/17 04:46:43;;;;;;;9.90;5.77;;;;;;;3.01;100.00;95472.16;4920070;28;20228;-68
2023/03/17 04:49:08;;;;;;;10.07;5.87;;;;;;;3.00;100.00;95475.72;4920140;28;20247;-68
2023/03/17 04:51:35;;;;;;;8.37;5.40;;;;;;;2.93;100.00;95479.81;4930671;28;20247;-68
2023/03/17 04:54:01;;;;;;;9.27;5.57;;;;;;;3.02;100.00;95485.91;4920000;28;20262;-69
2023/03/17 04:56:26;;;;;;;7.17;4.97;;;;;;;3.02;100.00;95496.25;4918909;28;21012;-67
2023/03/17 04:58:52;;;;;;;8.77;5.13;;;;;;;3.01;100.00;95489.47;4902750;28;20235;-69
2023/03/17 05:01:17;;;;;;;7.20;5.13;;;;;;;2.99;100.00;95491.34;4903550;28;20742;-72
2023/03/17 05:03:44;;;;;;;8.70;5.43;;;;;;;3.07;100.00;95494.06;4934316;28;20693;-70
2023/03/17 05:06:09;;;;;;;8.20;5.27;;;;;;;2.99;100.00;95486.19;4934706;28;20352;-69
2023/03/17 05:08:35;;;;;;;8.57;5.47;;;;;;;3.00;100.00;95498.97;4918903;28;20236;-68
2023/03/17 05:11:00;;;;;;;8.37;5.37;;;;;;;3.01;100.00;95507.56;4935887;28;20280;-68
2023/03/17 05:13:26;;;;;;;8.80;5.40;;;;;;;2.92;100.00;95504.03;4917330;28;20232;-68
2023/03/17 05:15:52;;;;;;;8.33;5.70;;;;;;;2.86;100.00;95512.34;4903791;28;20259;-68
2023/03/17 05:18:18;;;;;;;9.40;5.67;;;;;;;2.85;100.00;95509.88;4920426;28;20236;-69
2023/03/17 05:20:44;;;;;;;9.60;5.50;;;;;;;2.94;100.00;95511.66;4920758;28;20287;-68
2023/03/17 05:23:09;;;;;;;9.07;5.57;;;;;;;3.10;100.00;95517.06;4965675;28;20239;-69
2023/03/17 05:25:35;;;;;;;9.70;5.63;;;;;;;2.97;100.00;95527.69;4919470;28;20244;-68
2023/03/17 05:28:01;;;;;;;9.07;5.57;;;;;;;2.98;100.00;95526.75;4903719;28;20244;-68
2023/03/17 05:30:26;;;;;;;9.97;5.87;;;;;;;3.02;100.00;95530.69;4932724;28;20241;-68
2023/03/17 05:32:52;;;;;;;8.97;5.67;;;;;;;3.13;100.00;95525.34;4934807;28;20241;-68
2023/03/17 05:35:17;;;;;;;11.00;5.87;;;;;;;3.09;100.00;95534.34;4919437;28;20244;-68
2023/03/17 05:37:43;;;;;;;9.27;5.87;;;;;;;2.98;100.00;95531.91;4934362;28;20271;-68
2023/03/17 05:40:11;;;;;;;10.40;5.83;;;;;;;3.12;100.00;95533.25;4935260;28;20291;-69
2023/03/17 05:42:37;;;;;;;9.67;5.30;;;;;;;3.21;100.00;95532.41;4933880;28;20235;-69
2023/03/17 05:45:04;;;;;;;11.43;5.67;;;;;;;3.22;99.42;95528.88;4948912;28;20235;-68
2023/03/17 05:47:30;;;;;;;9.07;5.60;;;;;;;3.32;100.00;95532.22;4903247;28;20232;-67
2023/03/17 05:49:56;;;;;;;8.53;5.37;;;;;;;3.29;100.00;95532.53;4949404;28;20249;-68
2023/03/17 05:52:21;;;;;;;10.57;5.63;;;;;;;3.37;100.00;95537.81;4917930;28;20229;-67
2023/03/17 05:54:47;;;;;;;10.97;5.70;;;;;;;3.38;99.52;95540.28;4931504;28;20266;-68
2023/03/17 05:57:15;;;;;;;8.17;5.23;;;;;;;3.41;99.38;95539.97;4931848;28;20233;-69
2023/03/17 05:59:41;;;;;;;8.93;5.33;;;;;;;3.49;99.83;95547.03;4918660;28;20275;-69
2023/03/17 06:02:07;;;;;;;9.17;5.77;;;;;;;3.40;99.58;95553.06;4919585;28;21219;-68
2023/03/17 06:04:33;;;;;;;10.97;5.97;;;;;;;3.35;99.45;95545.72;4902794;28;20237;-68
2023/03/17 06:06:58;;;;;;;11.23;6.07;;;;;;;3.45;99.44;95560.41;4933270;28;20611;-69
2023/03/17 06:09:24;;;;;;;12.10;6.10;;;;;;;3.43;99.75;95568.31;4953724;28;20317;-68
2023/03/17 06:11:49;;;;;;;10.57;6.13;;;;;;;3.42;99.74;95570.06;4944558;28;20292;-69
2023/03/17 06:14:15;;;;;;;11.93;5.90;;;;;;;3.41;99.37;95581.38;4932775;28;20243;-68
2023/03/17 06:16:40;;;;;;;11.67;5.90;;;;;;;3.42;99.12;95580.41;4961615;28;20720;-67
2023/03/17 06:19:06;;;;;;;10.13;6.27;;;;;;;3.60;99.36;95579.69;4946829;28;20839;-69
2023/03/17 06:21:31;;;;;;;7.77;5.23;;;;;;;3.64;97.74;95587.03;4942822;28;20239;-68
2023/03/17 06:23:57;;;;;;;8.87;5.30;;;;;;;3.60;97.09;95590.06;4942982;28;20243;-67
2023/03/17 06:26:22;;;;;;;10.70;6.10;;;;;;;3.72;97.73;95587.16;4928397;28;20677;-68
2023/03/17 06:28:48;;;;;;;10.77;5.50;;;;;;;3.77;97.36;95587.56;4952329;28;20321;-67
2023/03/17 06:31:13;;;;;;;10.00;5.70;;;;;;;3.85;97.85;95592.81;4931524;28;20987;-67
2023/03/17 06:33:39;;;;;;;12.30;6.07;;;;;;;3.74;97.02;95595.59;4961360;28;20239;-68
2023/03/17 06:36:05;;;;;;;7.83;4.90;;;;;;;3.87;95.42;95605.66;4941251;28;20225;-68
2023/03/17 06:38:30;;;;;;;9.27;5.20;;;;;;;3.76;95.52;95595.44;4949426;28;20234;-68
2023/03/17 06:40:56;;;;;;;7.80;5.40;;;;;;;3.84;95.95;95593.78;4963554;28;20336;-70
2023/03/17 06:43:23;;;;;;;8.77;5.17;;;;;;;3.87;95.12;95598.66;4932853;28;20245;-70
2023/03/17 06:45:49;;;;;;;10.03;5.73;;;;;;;3.91;95.84;95600.03;4948315;28;20238;-69
2023/03/17 06:48:14;;;;;;;8.70;5.23;;;;;;;3.82;95.13;95600.06;4934391;28;20221;-70
2023/03/17 06:50:40;;;;;;;8.07;4.80;;;;;;;3.92;93.91;95604.25;4939221;28;20260;-70
2023/03/17 06:53:06;;;;;;;7.53;4.77;;;;;;;4.04;93.66;95602.28;4953059;28;20651;-70
2023/03/17 06:55:32;;;;;;;7.53;4.80;;;;;;;4.04;92.02;95602.28;4979120;28;20737;-68
2023/03/17 06:57:59;;;;;;;8.80;5.37;;;;;;;4.11;94.60;95605.13;4946964;28;20303;-69
2023/03/17 07:00:24;;;;;;;11.20;6.50;;;;;;;4.04;95.15;95605.69;4951298;28;20240;-69
2023/03/17 07:02:51;;;;;;;8.63;5.00;;;;;;;3.93;94.60;95605.88;4924262;28;20240;-69
2023/03/17 07:05:17;;;;;;;8.93;5.33;;;;;;;3.99;94.00;95609.66;4947674;28;20273;-70
2023/03/17 07:07:43;;;;;;;9.10;5.17;;;;;;;4.09;94.62;95611.25;4949621;28;20232;-70
2023/03/17 07:10:09;;;;;;;8.93;4.90;;;;;;;4.06;93.26;95611.53;4961129;28;20244;-70
2023/03/17 07:12:35;;;;;;;8.90;5.07;;;;;;;4.01;93.54;95616.31;4942127;28;20240;-68
2023/03/17 07:15:02;;;;;;;12.00;5.70;;;;;;;4.03;92.74;95622.22;4962382;28;20236;-68
2023/03/17 07:17:27;;;;;;;10.17;6.00;;;;;;;4.04;93.82;95621.22;4944729;28;20229;-69
2023/03/17 07:19:53;;;;;;;10.73;6.30;;;;;;;4.16;93.92;95613.25;4952828;28;20284;-68
2023/03/17 07:22:18;;;;;;;10.43;6.00;;;;;;;4.33;92.76;95612.50;4973723;28;20240;-68
2023/03/17 07:24:45;;;;;;;8.47;5.50;;;;;;;4.55;92.39;95622.47;4968359;28;20236;-69
2023/03/17 07:27:11;;;;;;;8.90;5.53;;;;;;;4.56;91.01;95621.53;4956424;28;20755;-69
2023/03/17 07:29:36;;;;;;;12.73;6.10;;;;;;;4.58;91.47;95622.19;4917874;28;20227;-69
2023/03/17 07:32:05;;;;;;;10.63;6.30;;;;;;;4.56;92.04;95624.13;4924893;28;20241;-69
2023/03/17 07:34:31;;;;;;;10.40;5.80;;;;;;;4.56;92.52;95618.94;4929407;28;20241;-68
2023/03/17 07:36:56;;;;;;;10.77;6.13;;;;;;;4.64;91.73;95619.84;4948779;28;20229;-68
2023/03/17 07:39:22;;;;;;;11.37;6.57;;;;;;;4.66;92.08;95627.44;4929367;28;20233;-70
2023/03/17 07:41:51;;;;;;;12.80;6.00;;;;;;;4.61;92.10;95632.25;4925793;28;20252;-68
2023/03/17 07:44:18;;;;;;;13.67;7.77;;;;;;;4.66;92.04;95627.44;4965354;28;20325;-68
2023/03/17 07:46:45;;;;;;;15.43;8.37;;;;;;;4.72;92.65;95632.06;4980099;28;20232;-68
2023/03/17 07:49:11;;;;;;;11.53;6.80;;;;;;;4.83;92.10;95636.22;4985410;28;20291;-68
2023/03/17 07:51:37;;;;;;;12.57;7.13;;;;;;;4.92;92.06;95635.34;4968633;28;20228;-66
2023/03/17 07:54:03;;;;;;;13.33;7.37;;;;;;;5.04;91.05;95634.97;4930446;28;20279;-67
2023/03/17 07:56:32;;;;;;;10.53;5.60;;;;;;;4.87;87.16;95632.38;4953641;28;20268;-67
2023/03/17 07:58:57;;;;;;;10.10;5.33;;;;;;;4.78;88.71;95636.66;4932045;28;20261;-67
2023/03/17 08:01:24;;;;;;;10.23;5.27;;;;;;;4.91;86.39;95633.72;4948530;28;20229;-69
2023/03/17 08:03:50;;;;;;;10.53;5.50;;;;;;;4.89;89.99;95633.88;4935462;28;20627;-68
2023/03/17 08:06:15;;;;;;;9.70;5.67;;;;;;;4.82;87.23;95643.19;4949391;28;20232;-68
2023/03/17 08:08:41;;;;;;;10.40;6.07;;;;;;;4.93;90.10;95640.38;4948710;28;20328;-67
2023/03/17 08:11:06;;;;;;;12.60;6.03;;;;;;;5.08;88.83;95641.50;4950108;28;20255;-67
2023/03/17 08:13:32;;;;;;;10.17;5.73;;;;;;;5.04;87.42;95647.94;4933362;28;20232;-67
2023/03/17 08:15:58;;;;;;;9.83;5.83;;;;;;;4.98;86.46;95645.13;4980647;28;20751;-68
2023/03/17 08:18:26;;;;;;;10.37;6.70;;;;;;;4.83;88.35;95646.59;4960882;28;20662;-69
2023/03/17 08:20:52;;;;;;;10.77;6.00;;;;;;;4.86;88.33;95644.53;4938520;28;20233;-67
2023/03/17 08:23:18;;;;;;;11.60;6.63;;;;;;;5.12;88.94;95644.59;4914936;28;20240;-68
2023/03/17 08:25:43;;;;;;;13.00;6.63;;;;;;;5.12;87.27;95642.03;4919836;28;20252;-67
2023/03/17 08:28:09;;;;;;;11.67;6.90;;;;;;;5.27;87.73;95643.97;4966536;28;20221;-68
2023/03/17 08:30:36;;;;;;;13.53;6.90;;;;;;;5.40;87.48;95649.56;4971151;28;20236;-69
2023/03/17 08:33:02;;;;;;;12.07;6.27;;;;;;;5.36;86.74;95645.66;4962652;28;20249;-68
2023/03/17 08:35:28;;;;;;;11.10;6.70;;;;;;;5.39;87.29;95642.75;4918015;28;20256;-68
2023/03/17 08:37:54;;;;;;;13.30;6.90;;;;;;;5.42;85.78;95639.84;4929023;28;20240;-68
2023/03/17 08:40:19;;;;;;;13.93;6.57;;;;;;;5.63;87.05;95643.91;4962375;28;20252;-68
2023/03/17 08:42:46;;;;;;;13.70;6.77;;;;;;;5.69;85.29;95643.28;4970159;28;20308;-68
2023/03/17 08:45:11;;;;;;;15.07;6.93;;;;;;;5.61;85.63;95648.44;4916767;28;20305;-68
2023/03/17 08:47:38;;;;;;;11.20;6.50;;;;;;;5.58;85.69;95648.72;4946684;28;20236;-68
2023/03/17 08:50:04;;;;;;;12.10;6.57;;;;;;;5.78;86.46;95648.38;4962373;28;20235;-68
2023/03/17 08:52:30;;;;;;;13.27;6.67;;;;;;;5.87;85.28;95639.72;4947448;28;20231;-68
2023/03/17 08:54:56;;;;;;;14.67;6.80;;;;;;;5.88;83.39;95643.13;4929128;28;20238;-68
2023/03/17 08:57:22;;;;;;;13.57;6.70;;;;;;;5.95;84.86;95649.34;4965452;28;20240;-68
2023/03/17 08:59:48;;;;;;;12.60;6.60;;;;;;;5.81;82.45;95650.69;4951537;28;20677;-68
2023/03/17 09:02:14;;;;;;;10.60;6.10;;;;;;;5.85;82.46;95648.66;4960593;28;20749;-68
2023/03/17 09:04:40;;;;;;;14.80;6.50;;;;;;;5.76;82.56;95646.91;4984733;28;20228;-68
2023/03/17 09:07:05;;;;;;;15.63;7.00;;;;;;;5.70;84.55;95653.53;4929939;28;20267;-67
2023/03/17 09:09:33;;;;;;;18.73;7.40;;;;;;;5.76;84.42;95654.69;4960298;28;20902;-68
2023/03/17 09:11:59;;;;;;;16.47;7.40;;;;;;;6.00;82.94;95652.28;4923258;28;20241;-68
2023/03/17 09:14:24;;;;;;;16.83;6.80;;;;;;;6.18;80.21;95650.47;4950033;28;20351;-68
2023/03/17 09:16:49;;;;;;;13.33;6.90;;;;;;;6.16;83.50;95656.78;4949732;28;20319;-69
2023/03/17 09:19:16;;;;;;;16.83;7.07;;;;;;;6.30;82.20;95659.63;4941066;28;20236;-67
2023/03/17 09:21:42;;;;;;;15.30;7.10;;;;;;;6.31;81.07;95655.22;4939475;28;20236;-68
2023/03/17 09:24:08;;;;;;;17.97;8.00;;;;;;;6.04;79.98;95654.44;4962754;28;20319;-68
2023/03/17 09:26:34;;;;;;;16.97;8.23;;;;;;;5.97;81.33;95658.59;4926264;28;20234;-68
2023/03/17 09:28:59;;;;;;;14.27;7.53;;;;;;;6.29;82.23;95652.78;4938387;28;20240;-68
2023/03/17 09:31:26;;;;;;;15.60;6.83;;;;;;;6.29;80.31;95655.38;4932207;28;20233;-68
2023/03/17 09:33:51;;;;;;;15.03;7.57;;;;;;;6.25;79.30;95655.84;4925898;28;20240;-67
2023/03/17 09:36:16;;;;;;;16.63;7.90;;;;;;;6.41;81.56;95653.31;4960409;28;20593;-67
2023/03/17 09:38:42;;;;;;;18.70;7.33;;;;;;;6.55;80.62;95650.94;4954099;28;20232;-68
2023/03/17 09:41:15;;;;;;;14.93;7.40;;;;;;;6.64;78.14;95656.97;4975200;28;20236;-67
2023/03/17 09:43:56;;;;;;;16.27;7.30;;;;;;;6.82;79.65;95664.69;4931385;28;20236;-68
2023/03/17 09:46:55;;;;;;;17.17;7.60;;;;;;;6.88;79.93;95667.47;4949794;28;20244;-68
2023/03/17 09:49:28;;;;;;;13.20;6.60;;;;;;;6.53;76.75;95662.47;4945648;28;20328;-67
2023/03/17 09:51:53;;;;;;;12.87;6.63;;;;;;;6.66;78.31;95671.44;4943388;28;20224;-67
2023/03/17 09:54:30;;;;;;;17.53;7.10;;;;;;;6.76;80.23;95671.31;4942222;28;20237;-68
2023/03/17 09:57:17;;;;;;;14.10;6.60;;;;;;;6.76;79.09;95660.91;4943175;28;20240;-68
2023/03/17 09:59:47;;;;;;;14.43;6.60;;;;;;;6.90;76.06;95667.31;4943882;28;20297;-68
2023/03/17 10:02:33;;;;;;;14.50;5.97;;;;;;;6.78;77.90;95667.59;4930202;28;20236;-68
2023/03/17 10:05:21;;;;;;;12.53;6.67;;;;;;;6.76;76.68;95669.53;4978136;28;20241;-68
2023/03/17 10:08:23;;;;;;;11.30;6.20;;;;;;;6.61;76.38;95657.31;4945029;28;20236;-68
2023/03/17 10:11:04;;;;;;;12.33;5.80;;;;;;;6.76;76.68;95666.94;4939431;28;20279;-68
2023/03/17 10:13:49;;;;;;;8.83;4.77;;;;;;;6.54;73.75;95671.91;4937712;28;20508;-68
2023/03/17 10:16:17;;;;;;;8.37;4.80;;;;;;;6.73;73.24;95667.25;4923540;28;20333;-68
2023/03/17 10:19:22;;;;;;;9.30;5.03;;;;;;;6.72;73.91;95664.81;4949507;28;20288;-67
2023/03/17 10:21:51;;;;;;;9.43;4.57;;;;;;;6.87;71.82;95670.22;4951894;28;20245;-68
2023/03/17 10:24:16;;;;;;;9.73;4.80;;;;;;;6.93;75.50;95661.78;4932615;28;20257;-68
2023/03/17 10:26:45;;;;;;;8.63;3.93;;;;;;;6.89;72.67;95658.69;4963847;28;20284;-67
2023/03/17 10:29:16;;;;;;;9.13;4.50;;;;;;;6.75;71.72;95659.31;4943727;28;20329;-68
2023/03/17 10:31:42;;;;;;;9.20;4.80;;;;;;;6.97;74.77;95658.72;4952220;28;20761;-68
2023/03/17 10:34:15;;;;;;;8.97;4.57;;;;;;;7.18;73.91;95659.09;4937746;28;20255;-69
2023/03/17 10:36:48;;;;;;;12.87;5.37;;;;;;;7.14;72.66;95655.16;4915900;28;20237;-68
2023/03/17 10:39:18;;;;;;;10.93;5.03;;;;;;;7.26;74.77;95653.88;4950882;28;20274;-67
2023/03/17 10:42:07;;;;;;;8.83;4.73;;;;;;;7.28;72.83;95657.13;4952795;28;20255;-68
2023/03/17 10:45:00;;;;;;;7.30;4.40;;;;;;;7.19;70.62;95657.28;4964864;28;20236;-68
2023/03/17 10:47:32;;;;;;;8.03;4.53;;;;;;;7.17;73.24;95654.84;4950161;28;20319;-68
2023/03/17 10:50:15;;;;;;;10.13;4.77;;;;;;;7.28;72.68;95653.72;4944166;28;20291;-68
2023/03/17 10:52:41;;;;;;;13.27;4.73;;;;;;;7.47;73.02;95650.81;4935807;28;20225;-69
2023/03/17 10:55:09;;;;;;;7.03;4.03;;;;;;;7.48;72.77;95642.84;4918637;28;20322;-68
2023/03/17 10:57:37;;;;;;;7.63;4.30;;;;;;;7.56;73.98;95633.38;4950705;28;20232;-68
2023/03/17 11:00:15;;;;;;;7.00;4.00;;;;;;;7.48;72.30;95635.03;4950434;28;20249;-69
2023/03/17 11:02:46;;;;;;;6.80;4.23;;;;;;;7.55;70.67;95624.75;4961656;28;20625;-69
2023/03/17 11:05:20;;;;;;;8.07;4.80;;;;;;;7.55;70.22;95621.34;4965763;28;20243;-67
2023/03/17 11:07:46;;;;;;;7.87;4.23;;;;;;;7.58;70.94;95611.41;4945761;28;20255;-68
2023/03/17 11:10:22;;;;;;;8.47;4.57;;;;;;;7.46;71.06;95608.34;4959762;28;20245;-69
2023/03/17 11:12:59;;;;;;;8.20;4.60;;;;;;;7.53;71.07;95612.88;4961077;28;20260;-69
2023/03/17 11:15:46;;;;;;;11.17;4.87;;;;;;;7.55;69.33;95622.16;4962461;28;20314;-69
2023/03/17 11:18:16;;;;;;;10.77;4.90;;;;;;;7.45;68.11;95624.13;4949291;28;20714;-69
2023/03/17 11:20:53;;;;;;;11.20;5.00;;;;;;;7.65;71.74;95628.00;4935344;28;20348;-68
2023/03/17 11:23:35;;;;;;;9.87;4.87;;;;;;;7.71;68.20;95616.94;4949043;28;20438;-69
2023/03/17 11:26:26;;;;;;;8.60;4.43;;;;;;;7.92;66.91;95622.44;4932623;28;20249;-68
2023/03/17 11:29:15;;;;;;;8.07;4.40;;;;;;;8.04;66.83;95615.09;4947651;28;20329;-68
2023/03/17 11:31:46;;;;;;;10.00;4.50;;;;;;;8.24;69.04;95615.53;4947775;28;20324;-69
2023/03/17 11:34:22;;;;;;;9.33;4.63;;;;;;;8.15;67.90;95607.72;4939192;28;20610;-68
2023/03/17 11:37:09;;;;;;;8.97;4.73;;;;;;;7.74;67.50;95615.81;4965882;28;20736;-68